createdAt,value
2022-09-21T00:00:33.179Z,57.57
2022-09-21T00:03:00.856Z,58.04
2022-09-21T00:05:27.584Z,57.60
2022-09-21T00:07:54.589Z,58.00
2022-09-21T00:12:49.066Z,57.67
2022-09-21T00:15:18.882Z,57.78
2022-09-21T00:17:47.058Z,58.17
2022-09-21T00:20:14.836Z,58.15
2022-09-21T00:22:42.172Z,58.26
2022-09-21T00:25:09.696Z,57.91
2022-09-21T00:27:36.924Z,57.84
2022-09-21T00:30:04.609Z,58.15
2022-09-21T00:32:32.027Z,57.84
2022-09-21T00:37:25.574Z,58.31
2022-09-21T00:39:52.746Z,57.97
2022-09-21T00:42:22.530Z,57.93
2022-09-21T00:44:50.101Z,58.23
2022-09-21T00:47:19.930Z,58.52
2022-09-21T00:49:49.814Z,58.59
2022-09-21T00:54:45.808Z,58.19
2022-09-21T00:57:14.701Z,58.36
2022-09-21T00:59:43.729Z,58.61
2022-09-21T01:02:11.230Z,58.67
2022-09-21T01:04:39.496Z,58.31
2022-09-21T01:07:09.121Z,58.66
2022-09-21T01:09:36.649Z,58.79
2022-09-21T01:12:06.830Z,58.82
2022-09-21T01:14:45.688Z,58.46
2022-09-21T01:22:13.053Z,58.97
2022-09-21T01:24:48.615Z,58.92
2022-09-21T01:27:24.689Z,58.84
2022-09-21T01:30:00.990Z,59.08
2022-09-21T01:32:29.311Z,58.77
2022-09-21T01:37:33.409Z,59.24
2022-09-21T01:40:02.287Z,59.25
2022-09-21T01:42:30.814Z,59.36
2022-09-21T01:44:59.342Z,58.97
2022-09-21T01:47:26.379Z,59.46
2022-09-21T01:49:55.927Z,59.55
2022-09-21T01:54:52.522Z,59.12
2022-09-21T01:57:29.439Z,59.19
2022-09-21T01:59:58.320Z,59.58
2022-09-21T02:02:26.459Z,59.45
2022-09-21T02:04:53.099Z,59.39
2022-09-21T02:07:19.684Z,59.30
2022-09-21T02:09:47.870Z,59.22
2022-09-21T02:12:18.958Z,59.75
2022-09-21T02:14:46.539Z,59.71
2022-09-21T02:17:25.254Z,59.53
2022-09-21T02:20:01.789Z,59.43
2022-09-21T02:22:29.458Z,59.48
2022-09-21T02:24:58.144Z,59.54
2022-09-21T02:27:25.969Z,59.74
2022-09-21T02:30:02.560Z,59.38
2022-09-21T02:32:34.079Z,59.30
2022-09-21T02:35:12.058Z,59.63
2022-09-21T02:37:48.955Z,59.23
2022-09-21T02:40:23.400Z,59.38
2022-09-21T02:42:54.771Z,59.38
2022-09-21T02:45:25.523Z,59.74
2022-09-21T02:47:52.751Z,59.21
2022-09-21T02:50:26.205Z,59.65
2022-09-21T02:52:55.105Z,59.38
2022-09-21T02:57:50.244Z,59.60
2022-09-21T03:00:17.422Z,59.76
2022-09-21T03:02:45.207Z,59.82
2022-09-21T03:05:13.337Z,60.07
2022-09-21T03:10:08.563Z,59.69
2022-09-21T03:12:35.510Z,59.90
2022-09-21T03:19:57.107Z,59.61
2022-09-21T03:22:24.394Z,59.92
2022-09-21T03:24:51.378Z,60.02
2022-09-21T03:27:19.643Z,60.10
2022-09-21T03:29:46.974Z,59.96
2022-09-21T03:32:15.218Z,60.05
2022-09-21T03:34:43.193Z,60.06
2022-09-21T03:37:10.615Z,60.25
2022-09-21T03:42:04.364Z,59.97
2022-09-21T03:46:58.559Z,60.12
2022-09-21T03:49:25.335Z,59.96
2022-09-21T03:51:51.909Z,60.22
2022-09-21T03:54:18.549Z,60.06
2022-09-21T03:56:45.605Z,59.79
2022-09-21T03:59:14.349Z,60.11
2022-09-21T04:01:41.893Z,60.45
2022-09-21T04:04:08.483Z,60.45
2022-09-21T04:06:35.125Z,60.49
2022-09-21T04:09:03.007Z,60.56
2022-09-21T04:11:30.329Z,60.34
2022-09-21T04:13:57.373Z,60.44
2022-09-21T04:16:24.729Z,60.57
2022-09-21T04:18:51.662Z,60.05
2022-09-21T04:21:19.165Z,59.84
2022-09-21T04:23:45.989Z,60.29
2022-09-21T04:28:49.126Z,60.44
2022-09-21T04:31:15.961Z,60.41
2022-09-21T04:33:42.829Z,60.22
2022-09-21T04:36:10.013Z,60.23
2022-09-21T04:38:36.660Z,60.22
2022-09-21T04:41:03.610Z,60.59
2022-09-21T04:43:30.200Z,60.46
2022-09-21T04:45:56.903Z,60.59
2022-09-21T04:48:23.632Z,60.50
2022-09-21T04:50:50.604Z,60.59
2022-09-21T04:53:17.579Z,60.28
2022-09-21T04:55:45.434Z,60.38
2022-09-21T04:58:12.126Z,60.25
2022-09-21T05:00:38.698Z,60.66
2022-09-21T05:05:32.190Z,60.79
2022-09-21T05:07:58.855Z,60.22
2022-09-21T05:10:25.579Z,60.75
2022-09-21T05:12:52.949Z,60.38
2022-09-21T05:15:20.898Z,60.44
2022-09-21T05:17:47.499Z,60.54
2022-09-21T05:20:15.254Z,60.61
2022-09-21T05:22:42.121Z,60.54
2022-09-21T05:25:10.726Z,60.41
2022-09-21T05:27:37.942Z,60.72
2022-09-21T05:30:05.698Z,60.70
2022-09-21T05:32:42.639Z,60.45
2022-09-21T05:35:15.376Z,60.51
2022-09-21T05:37:42.577Z,60.58
2022-09-21T05:40:10.975Z,60.63
2022-09-21T05:42:38.162Z,61.03
2022-09-21T05:45:05.527Z,60.64
2022-09-21T05:47:41.811Z,60.43
2022-09-21T05:50:11.951Z,60.82
2022-09-21T05:52:44.834Z,60.61
2022-09-21T05:55:20.294Z,60.74
2022-09-21T05:57:53.660Z,60.74
2022-09-21T06:00:22.599Z,60.61
2022-09-21T06:02:59.239Z,60.73
2022-09-21T06:05:26.620Z,60.39
2022-09-21T06:07:53.955Z,60.52
2022-09-21T06:10:20.739Z,60.35
2022-09-21T06:12:47.841Z,60.86
2022-09-21T06:15:15.358Z,60.28
2022-09-21T06:17:42.580Z,60.98
2022-09-21T06:20:09.687Z,60.91
2022-09-21T06:22:36.469Z,60.86
2022-09-21T06:25:03.095Z,60.95
2022-09-21T06:27:30.090Z,61.34
2022-09-21T06:29:56.809Z,61.20
2022-09-21T06:32:23.589Z,61.61
2022-09-21T06:37:15.811Z,61.93
2022-09-21T06:39:42.492Z,61.42
2022-09-21T06:42:09.897Z,61.28
2022-09-21T06:44:42.551Z,59.93
2022-09-21T06:47:09.574Z,57.54
2022-09-21T06:49:41.768Z,56.57
2022-09-21T06:54:38.180Z,54.09
2022-09-21T06:57:09.143Z,53.71
2022-09-21T06:59:40.985Z,53.25
2022-09-21T07:02:09.314Z,52.53
2022-09-21T07:04:49.511Z,52.38
2022-09-21T07:07:16.235Z,52.09
2022-09-21T07:12:30.276Z,51.14
2022-09-21T07:14:57.114Z,52.54
2022-09-21T07:17:24.590Z,52.90
2022-09-21T07:19:51.371Z,53.76
2022-09-21T07:22:18.365Z,54.07
2022-09-21T07:24:45.225Z,54.23
2022-09-21T07:27:12.091Z,54.21
2022-09-21T07:29:39.119Z,54.41
2022-09-21T07:32:12.902Z,54.54
2022-09-21T07:34:42.169Z,54.85
2022-09-21T07:37:09.183Z,54.59
2022-09-21T07:39:39.441Z,54.97
2022-09-21T07:42:06.674Z,54.77
2022-09-21T07:44:34.807Z,54.77
2022-09-21T07:47:03.639Z,54.85
2022-09-21T07:49:30.720Z,54.44
2022-09-21T07:52:02.915Z,54.83
2022-09-21T07:54:34.849Z,54.54
2022-09-21T07:57:11.516Z,54.64
2022-09-21T07:59:38.212Z,54.61
2022-09-21T08:02:05.495Z,54.34
2022-09-21T08:04:41.365Z,54.73
2022-09-21T08:07:08.488Z,54.50
2022-09-21T08:09:35.459Z,54.57
2022-09-21T08:12:02.276Z,54.35
2022-09-21T08:14:29.574Z,54.54
2022-09-21T08:19:26.044Z,54.61
2022-09-21T08:21:57.163Z,54.46
2022-09-21T08:24:25.932Z,54.87
2022-09-21T08:26:53.215Z,54.47
2022-09-21T08:29:19.969Z,54.76
2022-09-21T08:31:47.072Z,54.67
2022-09-21T08:36:40.270Z,54.79
2022-09-21T08:39:07.599Z,54.56
2022-09-21T08:41:43.690Z,54.60
2022-09-21T08:44:16.175Z,54.42
2022-09-21T08:46:44.448Z,54.42
2022-09-21T08:49:17.089Z,54.86
2022-09-21T08:54:25.456Z,54.44
2022-09-21T08:59:22.484Z,54.95
2022-09-21T09:02:00.355Z,54.53
2022-09-21T09:07:10.016Z,54.87
2022-09-21T09:09:46.550Z,54.76
2022-09-21T09:15:00.313Z,54.73
2022-09-21T09:17:28.813Z,54.76
2022-09-21T09:22:30.014Z,54.83
2022-09-21T09:25:03.220Z,55.16
2022-09-21T09:27:34.160Z,54.98
2022-09-21T09:30:04.307Z,54.99
2022-09-21T09:32:42.620Z,55.37
2022-09-21T09:35:18.649Z,55.10
2022-09-21T09:40:14.844Z,55.47
2022-09-21T09:42:44.805Z,55.01
2022-09-21T09:45:12.812Z,55.05
2022-09-21T09:47:51.689Z,55.19
2022-09-21T09:50:25.887Z,55.37
2022-09-21T09:52:55.154Z,55.49
2022-09-21T09:55:26.147Z,54.92
2022-09-21T09:57:55.141Z,54.81
2022-09-21T10:00:22.579Z,55.31
2022-09-21T10:02:59.999Z,55.17
2022-09-21T10:05:38.875Z,55.06
2022-09-21T10:08:05.620Z,55.05
2022-09-21T10:10:34.535Z,55.49
2022-09-21T10:13:04.559Z,49.13
2022-09-21T10:18:02.450Z,45.38
2022-09-21T10:23:00.174Z,43.52
2022-09-21T10:25:26.959Z,43.38
2022-09-21T10:27:55.915Z,42.61
2022-09-21T10:30:32.670Z,42.00
2022-09-21T10:32:59.900Z,42.41
2022-09-21T10:35:27.532Z,41.24
2022-09-21T10:38:04.055Z,41.16
2022-09-21T10:40:37.181Z,41.29
2022-09-21T10:43:05.374Z,42.29
2022-09-21T10:45:35.105Z,41.48
2022-09-21T10:48:11.790Z,40.65
2022-09-21T10:50:42.454Z,41.00
2022-09-21T10:53:09.653Z,40.75
2022-09-21T10:55:44.112Z,41.02
2022-09-21T10:58:19.778Z,39.74
2022-09-21T11:00:48.435Z,40.11
2022-09-21T11:03:24.679Z,39.87
2022-09-21T11:08:24.009Z,40.28
2022-09-21T11:13:22.164Z,38.53
2022-09-21T11:15:55.884Z,38.59
2022-09-21T11:21:00.289Z,38.83
2022-09-21T11:23:36.735Z,42.38
2022-09-21T11:26:12.996Z,44.71
2022-09-21T11:28:41.111Z,46.22
2022-09-21T11:31:11.495Z,46.92
2022-09-21T11:33:41.434Z,47.42
2022-09-21T11:36:08.549Z,47.87
2022-09-21T11:38:39.877Z,48.75
2022-09-21T11:41:14.611Z,48.90
2022-09-21T11:43:49.885Z,49.33
2022-09-21T11:46:30.536Z,49.51
2022-09-21T11:49:06.975Z,49.91
2022-09-21T11:54:20.811Z,50.15
2022-09-21T11:56:47.857Z,50.72
2022-09-21T11:59:15.035Z,50.75
2022-09-21T12:01:58.676Z,51.14
2022-09-21T12:04:41.155Z,51.30
2022-09-21T12:07:17.670Z,51.45
2022-09-21T12:09:44.530Z,51.55
2022-09-21T12:12:13.645Z,51.78
2022-09-21T12:14:45.377Z,51.79
2022-09-21T12:17:18.531Z,52.00
2022-09-21T12:19:51.396Z,51.83
2022-09-21T12:22:21.489Z,52.24
2022-09-21T12:24:55.398Z,52.18
2022-09-21T12:27:27.635Z,52.57
2022-09-21T12:29:57.530Z,52.74
2022-09-21T12:32:33.695Z,52.71
2022-09-21T12:35:05.596Z,52.68
2022-09-21T12:37:37.495Z,52.68
2022-09-21T12:40:13.524Z,53.26
2022-09-21T12:42:51.159Z,53.04
2022-09-21T12:45:27.733Z,53.00
2022-09-21T12:48:00.533Z,53.35
2022-09-21T12:50:27.771Z,53.48
2022-09-21T12:52:56.324Z,53.22
2022-09-21T12:55:32.677Z,53.64
2022-09-21T12:58:16.576Z,53.73
2022-09-21T13:00:52.795Z,53.72
2022-09-21T13:03:25.877Z,53.90
2022-09-21T13:06:06.995Z,53.53
2022-09-21T13:08:37.038Z,54.03
2022-09-21T13:11:05.970Z,53.99
2022-09-21T13:16:01.632Z,54.17
2022-09-21T13:18:37.552Z,54.26
2022-09-21T13:21:13.490Z,54.35
2022-09-21T13:23:42.556Z,54.16
2022-09-21T13:26:10.634Z,54.29
2022-09-21T13:28:46.614Z,54.46
2022-09-21T13:31:40.441Z,54.37
2022-09-21T13:34:11.065Z,54.16
2022-09-21T13:36:37.914Z,54.08
2022-09-21T13:39:05.573Z,54.17
2022-09-21T13:41:51.786Z,54.27
2022-09-21T13:46:48.640Z,54.53
2022-09-21T13:49:15.788Z,54.16
2022-09-21T13:51:51.651Z,54.49
2022-09-21T13:54:21.094Z,54.23
2022-09-21T13:56:57.916Z,54.18
2022-09-21T13:59:26.589Z,54.18
2022-09-21T14:01:53.677Z,54.42
2022-09-21T14:04:25.152Z,54.37
2022-09-21T14:06:54.574Z,54.62
2022-09-21T14:09:22.978Z,54.77
2022-09-21T14:11:55.831Z,54.56
2022-09-21T14:17:02.785Z,54.61
2022-09-21T14:19:29.646Z,54.38
2022-09-21T14:22:05.677Z,54.57
2022-09-21T14:24:42.000Z,54.70
2022-09-21T14:27:10.058Z,54.45
2022-09-21T14:29:42.456Z,54.33
2022-09-21T14:32:16.346Z,54.59
2022-09-21T14:35:14.476Z,54.46
2022-09-21T14:37:43.515Z,54.66
2022-09-21T14:40:20.089Z,54.39
2022-09-21T14:42:47.693Z,54.48
2022-09-21T14:45:18.552Z,54.14
2022-09-21T14:47:53.484Z,54.38
2022-09-21T14:50:31.014Z,54.05
2022-09-21T14:53:08.537Z,53.97
2022-09-21T14:55:35.663Z,54.38
2022-09-21T14:58:11.810Z,54.17
2022-09-21T15:00:44.502Z,54.18
2022-09-21T15:03:20.854Z,53.74
2022-09-21T15:08:40.282Z,54.02
2022-09-21T15:13:56.628Z,54.09
2022-09-21T15:16:35.930Z,54.11
2022-09-21T15:19:16.738Z,54.24
2022-09-21T15:21:45.117Z,53.96
2022-09-21T15:24:20.552Z,54.05
2022-09-21T15:26:50.037Z,54.34
2022-09-21T15:31:49.073Z,54.28
2022-09-21T15:34:16.482Z,54.36
2022-09-21T15:36:43.897Z,54.46
2022-09-21T15:39:20.742Z,54.50
2022-09-21T15:41:49.280Z,54.58
2022-09-21T15:44:18.251Z,54.79
2022-09-21T15:46:47.421Z,54.63
2022-09-21T15:49:15.882Z,54.82
2022-09-21T15:51:45.692Z,54.70
2022-09-21T15:54:21.808Z,54.53
2022-09-21T15:56:48.692Z,54.47
2022-09-21T15:59:21.853Z,54.56
2022-09-21T16:01:51.923Z,54.45
2022-09-21T16:04:22.376Z,54.84
2022-09-21T16:07:10.141Z,54.42
2022-09-21T16:09:37.759Z,54.86
2022-09-21T16:12:24.513Z,54.86
2022-09-21T16:15:04.457Z,54.92
2022-09-21T16:17:36.577Z,54.98
2022-09-21T16:20:11.181Z,55.02
2022-09-21T16:22:39.953Z,55.18
2022-09-21T16:25:32.759Z,55.34
2022-09-21T16:28:01.028Z,54.96
2022-09-21T16:30:48.858Z,54.85
2022-09-21T16:33:25.745Z,55.08
2022-09-21T16:35:52.898Z,55.11
2022-09-21T16:38:20.672Z,54.67
2022-09-21T16:40:47.657Z,54.79
2022-09-21T16:43:16.103Z,54.51
2022-09-21T16:45:43.831Z,54.99
2022-09-21T16:48:13.073Z,54.60
2022-09-21T16:50:43.721Z,54.58
2022-09-21T16:53:11.299Z,54.89
2022-09-21T16:55:38.715Z,54.84
2022-09-21T16:58:06.157Z,54.68
2022-09-21T17:00:33.370Z,54.86
2022-09-21T17:03:06.081Z,54.77
2022-09-21T17:05:33.570Z,54.79
2022-09-21T17:08:01.013Z,54.79
2022-09-21T17:10:30.327Z,55.03
2022-09-21T17:12:57.500Z,55.11
2022-09-21T17:15:25.720Z,54.76
2022-09-21T17:17:52.902Z,55.07
2022-09-21T17:20:31.659Z,54.92
2022-09-21T17:25:25.962Z,54.65
2022-09-21T17:27:53.615Z,55.07
2022-09-21T17:30:21.629Z,54.94
2022-09-21T17:32:50.914Z,55.12
2022-09-21T17:35:38.988Z,55.13
2022-09-21T17:38:06.111Z,54.69
2022-09-21T17:40:34.020Z,54.67
2022-09-21T17:45:42.438Z,54.66
2022-09-21T17:48:13.599Z,54.66
2022-09-21T17:50:41.230Z,54.62
2022-09-21T17:53:18.432Z,55.08
2022-09-21T17:55:49.895Z,54.61
2022-09-21T17:58:23.748Z,54.74
2022-09-21T18:00:53.931Z,54.89
2022-09-21T18:03:25.115Z,55.13
2022-09-21T18:05:56.233Z,55.10
2022-09-21T18:08:23.914Z,55.21
2022-09-21T18:10:56.712Z,54.77
2022-09-21T18:13:29.494Z,55.16
2022-09-21T18:16:06.463Z,55.12
2022-09-21T18:18:33.946Z,54.73
2022-09-21T18:21:04.111Z,54.96
2022-09-21T18:23:40.922Z,54.88
2022-09-21T18:26:10.574Z,55.02
2022-09-21T18:28:39.781Z,54.86
2022-09-21T18:31:16.977Z,54.84
2022-09-21T18:33:47.072Z,55.04
2022-09-21T18:36:19.961Z,55.25
2022-09-21T18:38:53.365Z,54.91
2022-09-21T18:41:21.876Z,55.28
2022-09-21T18:43:52.063Z,55.29
2022-09-21T18:46:29.370Z,55.14
2022-09-21T18:48:57.611Z,54.87
2022-09-21T18:51:31.084Z,55.23
2022-09-21T18:53:58.528Z,55.38
2022-09-21T18:56:27.113Z,54.91
2022-09-21T18:58:54.138Z,55.26
2022-09-21T19:01:23.308Z,55.30
2022-09-21T19:03:51.017Z,55.28
2022-09-21T19:06:37.927Z,55.00
2022-09-21T19:09:19.080Z,54.84
2022-09-21T19:11:56.024Z,55.03
2022-09-21T19:14:26.177Z,55.30
2022-09-21T19:16:54.326Z,55.12
2022-09-21T19:19:30.845Z,55.43
2022-09-21T19:21:57.908Z,55.05
2022-09-21T19:26:58.630Z,55.09
2022-09-21T19:29:38.736Z,55.41
2022-09-21T19:32:10.911Z,55.13
2022-09-21T19:34:37.887Z,55.57
2022-09-21T19:37:07.896Z,54.82
2022-09-21T19:39:35.163Z,54.57
2022-09-21T19:42:09.023Z,54.40
2022-09-21T19:44:41.264Z,53.97
2022-09-21T19:47:09.202Z,54.10
2022-09-21T19:49:40.797Z,54.12
2022-09-21T19:52:11.471Z,53.69
2022-09-21T19:54:48.444Z,53.70
2022-09-21T19:57:27.465Z,54.15
2022-09-21T19:59:54.653Z,54.47
2022-09-21T20:02:28.784Z,54.49
2022-09-21T20:04:56.776Z,54.97
2022-09-21T20:07:25.498Z,55.02
2022-09-21T20:10:01.335Z,54.90
2022-09-21T20:12:32.223Z,55.07
2022-09-21T20:15:04.774Z,54.73
2022-09-21T20:17:36.533Z,55.05
2022-09-21T20:20:11.870Z,54.89
2022-09-21T20:22:40.134Z,54.91
2022-09-21T20:25:13.347Z,55.19
2022-09-21T20:27:40.601Z,55.40
2022-09-21T20:30:09.559Z,55.45
2022-09-21T20:32:37.544Z,55.31
2022-09-21T20:35:09.862Z,55.51
2022-09-21T20:37:36.703Z,55.38
2022-09-21T20:40:03.930Z,55.60
2022-09-21T20:42:30.777Z,55.61
2022-09-21T20:44:57.637Z,55.76
2022-09-21T20:47:24.734Z,55.33
2022-09-21T20:49:51.482Z,55.79
2022-09-21T20:52:18.293Z,55.64
2022-09-21T20:54:49.007Z,55.68
2022-09-21T20:57:16.563Z,54.22
2022-09-21T20:59:43.931Z,54.19
2022-09-21T21:02:11.613Z,53.95
2022-09-21T21:04:38.935Z,53.57
2022-09-21T21:07:06.353Z,53.94
2022-09-21T21:09:33.334Z,53.94
2022-09-21T21:12:00.225Z,54.34
2022-09-21T21:14:27.094Z,54.42
2022-09-21T21:16:53.962Z,54.79
2022-09-21T21:19:21.503Z,55.06
2022-09-21T21:21:48.393Z,55.08
2022-09-21T21:24:24.411Z,54.74
2022-09-21T21:27:08.366Z,54.82
2022-09-21T21:29:35.574Z,54.72
2022-09-21T21:32:04.221Z,54.83
2022-09-21T21:34:31.925Z,55.02
2022-09-21T21:36:59.255Z,55.31
2022-09-21T21:39:26.203Z,54.91
2022-09-21T21:41:53.173Z,54.96
2022-09-21T21:44:20.056Z,55.01
2022-09-21T21:46:47.094Z,55.32
2022-09-21T21:49:13.988Z,55.37
2022-09-21T21:51:40.916Z,55.73
2022-09-21T21:54:08.852Z,55.50
2022-09-21T21:56:37.057Z,55.64
2022-09-21T21:59:04.095Z,55.84
2022-09-21T22:04:00.733Z,55.43
2022-09-21T22:06:28.723Z,55.65
2022-09-21T22:08:56.462Z,56.12
2022-09-21T22:11:25.328Z,56.00
2022-09-21T22:13:54.626Z,56.24
2022-09-21T22:16:22.493Z,56.04
2022-09-21T22:18:49.915Z,56.01
2022-09-21T22:21:18.484Z,55.89
2022-09-21T22:23:45.334Z,56.41
2022-09-21T22:26:13.502Z,56.49
2022-09-21T22:28:41.014Z,56.32
2022-09-21T22:31:10.174Z,56.40
2022-09-21T22:33:37.973Z,56.49
2022-09-21T22:36:09.561Z,56.46
2022-09-21T22:38:41.907Z,56.45
2022-09-21T22:41:11.574Z,56.39
2022-09-21T22:43:38.623Z,56.72
2022-09-21T22:46:06.091Z,56.85
2022-09-21T22:48:33.371Z,56.70
2022-09-21T22:51:00.127Z,56.60
2022-09-21T22:53:27.295Z,56.87
2022-09-21T22:56:01.626Z,56.76
2022-09-21T22:58:28.354Z,56.86
2022-09-21T23:01:03.780Z,56.92
2022-09-21T23:03:30.603Z,56.60
2022-09-21T23:05:58.813Z,56.66
2022-09-21T23:08:25.994Z,57.07
2022-09-21T23:10:52.723Z,56.71
2022-09-21T23:13:19.543Z,56.73
2022-09-21T23:15:46.465Z,57.13
2022-09-21T23:18:13.195Z,57.31
2022-09-21T23:20:40.193Z,57.16
2022-09-21T23:23:06.924Z,57.21
2022-09-21T23:25:33.793Z,57.08
2022-09-21T23:28:01.004Z,57.52
2022-09-21T23:30:27.909Z,57.41
2022-09-21T23:32:55.082Z,57.52
2022-09-21T23:35:22.177Z,57.45
2022-09-21T23:37:48.983Z,57.55
2022-09-21T23:40:15.955Z,57.70
2022-09-21T23:42:42.912Z,57.98
2022-09-21T23:45:09.954Z,58.10
2022-09-21T23:47:36.886Z,58.18
2022-09-21T23:50:03.904Z,58.19
2022-09-21T23:52:31.482Z,58.02
2022-09-21T23:54:58.471Z,58.37
2022-09-21T23:57:25.459Z,58.40
2022-09-21T23:59:53.073Z,58.56
